Time,TemperatureF,DewpointF,PressureIn,WindDirection,WindDirectionDegrees,WindSpeedMPH,WindSpeedGustMPH,Humidity,HourlyPrecipIn,Conditions,Clouds,dailyrainin,SoftwareType,DateUTC
2013-08-12 00:05:00,57.7,54.1,30.02,West,260,0.0,1.0,88,0.00,,,0.00,meteohub,2013-08-12 07:05:00,
2013-08-12 00:10:00,57.6,54.3,30.03,West,260,0.0,1.0,89,0.00,,,0.00,meteohub,2013-08-12 07:10:00,
2013-08-12 00:15:00,57.6,54.3,30.02,West,269,0.0,1.0,89,0.00,,,0.00,meteohub,2013-08-12 07:15:00,
2013-08-12 00:20:00,57.4,54.1,30.02,West,276,0.0,1.0,89,0.00,,,0.00,meteohub,2013-08-12 07:20:00,
2013-08-12 00:25:00,57.2,54.0,30.02,West,276,0.0,1.0,89,0.00,,,0.00,meteohub,2013-08-12 07:25:00,
2013-08-12 00:30:00,57.0,54.1,30.02,West,275,0.0,1.0,90,0.00,,,0.00,meteohub,2013-08-12 07:30:00,
2013-08-12 00:35:00,56.7,53.8,30.03,West,276,0.0,1.0,90,0.00,,,0.00,meteohub,2013-08-12 07:35:00,
2013-08-12 00:40:00,56.5,54.0,30.02,West,277,0.0,1.0,91,0.00,,,0.00,meteohub,2013-08-12 07:40:00,
2013-08-12 00:45:00,56.5,54.0,30.02,WNW,283,1.0,1.0,91,0.00,,,0.00,meteohub,2013-08-12 07:45:00,
2013-08-12 00:50:00,56.1,53.6,30.03,WNW,291,1.0,1.0,91,0.00,,,0.00,meteohub,2013-08-12 07:50:00,
2013-08-12 00:55:00,55.9,53.4,30.02,WNW,288,1.0,1.0,91,0.00,,,0.00,meteohub,2013-08-12 07:55:00,
2013-08-12 01:00:00,55.9,53.6,30.02,WNW,287,1.0,2.0,92,0.00,,,0.00,meteohub,2013-08-12 08:00:00,
2013-08-12 01:05:00,55.8,53.4,30.03,WNW,287,0.0,2.0,92,0.00,,,0.00,meteohub,2013-08-12 08:05:00,
2013-08-12 01:10:00,55.8,53.4,30.03,WNW,287,0.0,2.0,92,0.00,,,0.00,meteohub,2013-08-12 08:10:00,
2013-08-12 01:15:00,55.6,53.2,30.03,WNW,287,0.0,1.0,92,0.00,,,0.00,meteohub,2013-08-12 08:15:00,
2013-08-12 01:20:00,55.4,53.1,30.02,WNW,288,1.0,2.0,92,0.00,,,0.00,meteohub,2013-08-12 08:20:00,
2013-08-12 01:25:00,55.4,53.4,30.03,West,280,1.0,2.0,93,0.00,,,0.00,meteohub,2013-08-12 08:25:00,
2013-08-12 01:30:00,55.2,53.2,30.02,West,280,1.0,2.0,93,0.00,,,0.00,meteohub,2013-08-12 08:30:00,
2013-08-12 01:35:00,55.2,53.2,30.03,WNW,283,1.0,1.0,93,0.00,,,0.00,meteohub,2013-08-12 08:35:00,
2013-08-12 01:40:00,55.2,53.2,30.03,WNW,283,1.0,1.0,93,0.00,,,0.00,meteohub,2013-08-12 08:40:00,
2013-08-12 01:46:00,55.2,53.2,30.03,WNW,283,0.0,2.0,93,0.00,,,0.00,meteohub,2013-08-12 08:46:00,
2013-08-12 01:51:00,55.0,53.1,30.03,WNW,282,1.0,2.0,93,0.00,,,0.00,meteohub,2013-08-12 08:51:00,
2013-08-12 01:56:00,55.2,53.2,30.02,WNW,283,1.0,2.0,93,0.00,,,0.00,meteohub,2013-08-12 08:56:00,
2013-08-12 02:01:00,55.4,53.4,30.02,WNW,299,1.0,1.0,93,0.00,,,0.00,meteohub,2013-08-12 09:01:00,
2013-08-12 02:06:00,55.6,53.6,30.02,WNW,288,0.0,2.0,93,0.00,,,0.00,meteohub,2013-08-12 09:06:00,
2013-08-12 02:11:00,55.8,53.8,30.02,North,352,0.0,2.0,93,0.00,,,0.00,meteohub,2013-08-12 09:11:00,
2013-08-12 02:16:00,55.8,53.8,30.02,North,352,0.0,2.0,93,0.00,,,0.00,meteohub,2013-08-12 09:16:00,
2013-08-12 02:21:00,55.9,54.0,30.02,North,352,0.0,1.0,93,0.00,,,0.00,meteohub,2013-08-12 09:21:00,
2013-08-12 02:26:00,56.1,54.1,30.02,NE,44,0.0,1.0,93,0.00,,,0.00,meteohub,2013-08-12 09:26:00,
2013-08-12 02:31:00,56.1,54.1,30.02,NE,44,0.0,1.0,93,0.00,,,0.00,meteohub,2013-08-12 09:31:00,
2013-08-12 02:36:00,56.1,54.1,30.02,NE,43,0.0,1.0,93,0.00,,,0.00,meteohub,2013-08-12 09:36:00,
2013-08-12 02:41:00,56.5,54.5,30.02,WNW,285,1.0,0.0,93,0.00,,,0.00,meteohub,2013-08-12 09:41:00,
2013-08-12 02:46:00,56.5,54.1,30.02,West,277,0.0,2.0,92,0.00,,,0.00,meteohub,2013-08-12 09:46:00,
2013-08-12 02:51:00,56.7,54.3,30.02,West,277,0.0,2.0,92,0.00,,,0.00,meteohub,2013-08-12 09:51:00,
2013-08-12 02:56:00,56.7,54.3,30.02,West,277,0.0,2.0,92,0.00,,,0.00,meteohub,2013-08-12 09:56:00,
2013-08-12 03:01:00,56.7,54.3,30.02,West,277,0.0,0.0,92,0.00,,,0.00,meteohub,2013-08-12 10:01:00,
2013-08-12 03:06:00,56.8,54.5,30.02,West,277,0.0,1.0,92,0.00,,,0.00,meteohub,2013-08-12 10:06:00,
2013-08-12 03:11:00,57.0,54.5,30.02,West,277,0.0,1.0,91,0.00,,,0.00,meteohub,2013-08-12 10:11:00,
2013-08-12 03:16:00,57.0,54.5,30.02,West,278,0.0,1.0,91,0.00,,,0.00,meteohub,2013-08-12 10:16:00,
2013-08-12 03:21:00,57.0,54.5,30.02,West,277,0.0,0.0,91,0.00,,,0.00,meteohub,2013-08-12 10:21:00,
2013-08-12 03:26:00,57.0,54.7,30.02,West,279,0.0,0.0,92,0.00,,,0.00,meteohub,2013-08-12 10:26:00,
2013-08-12 03:31:00,57.2,54.7,30.02,NW,304,0.0,1.0,91,0.00,,,0.00,meteohub,2013-08-12 10:31:00,
2013-08-12 03:37:00,57.2,54.7,30.02,NW,315,0.0,1.0,91,0.00,,,0.00,meteohub,2013-08-12 10:37:00,
2013-08-12 03:42:00,57.2,54.7,30.02,NW,317,0.0,1.0,91,0.00,,,0.00,meteohub,2013-08-12 10:42:00,
2013-08-12 03:47:00,57.4,54.9,30.02,NW,314,1.0,1.0,91,0.00,,,0.00,meteohub,2013-08-12 10:47:00,
2013-08-12 03:52:00,57.4,55.0,30.02,WNW,298,1.0,1.0,92,0.00,,,0.00,meteohub,2013-08-12 10:52:00,
2013-08-12 03:57:00,57.6,55.0,30.02,WNW,301,0.0,3.0,91,0.00,,,0.00,meteohub,2013-08-12 10:57:00,
2013-08-12 04:02:00,57.6,55.0,30.02,North,8,0.0,3.0,91,0.00,,,0.00,meteohub,2013-08-12 11:02:00,
2013-08-12 04:07:00,57.7,55.2,30.02,North,7,0.0,3.0,91,0.00,,,0.00,meteohub,2013-08-12 11:07:00,
2013-08-12 04:12:00,57.7,55.2,30.03,North,7,0.0,1.0,91,0.00,,,0.00,meteohub,2013-08-12 11:12:00,
2013-08-12 04:17:00,57.7,55.2,30.03,North,8,0.0,1.0,91,0.00,,,0.00,meteohub,2013-08-12 11:17:00,
2013-08-12 04:22:00,57.9,55.6,30.03,ESE,120,1.0,1.0,92,0.00,,,0.00,meteohub,2013-08-12 11:22:00,
2013-08-12 04:27:00,57.9,55.6,30.03,ESE,117,0.0,1.0,92,0.00,,,0.00,meteohub,2013-08-12 11:27:00,
2013-08-12 04:32:00,57.9,55.6,30.03,ESE,118,0.0,1.0,92,0.00,,,0.00,meteohub,2013-08-12 11:32:00,
2013-08-12 04:37:00,57.7,55.4,30.03,ESE,117,1.0,1.0,92,0.00,,,0.00,meteohub,2013-08-12 11:37:00,
2013-08-12 04:42:00,57.7,55.4,30.03,ESE,117,0.0,1.0,92,0.00,,,0.00,meteohub,2013-08-12 11:42:00,
2013-08-12 04:47:00,57.7,55.4,30.03,ESE,117,0.0,1.0,92,0.00,,,0.00,meteohub,2013-08-12 11:47:00,
2013-08-12 04:52:00,57.7,55.4,30.03,ESE,117,0.0,1.0,92,0.00,,,0.00,meteohub,2013-08-12 11:52:00,
2013-08-12 04:57:00,57.7,55.4,30.03,ESE,117,0.0,0.0,92,0.00,,,0.00,meteohub,2013-08-12 11:57:00,
2013-08-12 05:02:00,57.7,55.4,30.03,ESE,117,0.0,0.0,92,0.00,,,0.00,meteohub,2013-08-12 12:02:00,
2013-08-12 05:07:00,57.7,55.4,30.04,ESE,117,0.0,0.0,92,0.00,,,0.00,meteohub,2013-08-12 12:07:00,
2013-08-12 05:08:00,57.7,55.4,30.04,ESE,117,0.0,0.0,92,0.00,,,0.00,meteohub,2013-08-12 12:08:00,
2013-08-12 05:13:00,57.7,55.4,30.04,ESE,117,0.0,0.0,92,0.00,,,0.00,meteohub,2013-08-12 12:13:00,
2013-08-12 05:18:00,57.9,55.6,30.04,ESE,113,1.0,1.0,92,0.00,,,0.00,meteohub,2013-08-12 12:18:00,
2013-08-12 05:23:00,57.9,55.6,30.04,ESE,113,0.0,1.0,92,0.00,,,0.00,meteohub,2013-08-12 12:23:00,
2013-08-12 05:28:00,57.9,55.6,30.04,ESE,109,0.0,1.0,92,0.00,,,0.00,meteohub,2013-08-12 12:28:00,
2013-08-12 05:33:00,57.9,55.6,30.04,ESE,108,0.0,1.0,92,0.00,,,0.00,meteohub,2013-08-12 12:33:00,
2013-08-12 05:38:00,57.9,55.6,30.04,ESE,109,0.0,1.0,92,0.00,,,0.00,meteohub,2013-08-12 12:38:00,
2013-08-12 05:43:00,57.9,55.2,30.04,ESE,107,0.0,1.0,91,0.00,,,0.00,meteohub,2013-08-12 12:43:00,
2013-08-12 05:48:00,58.1,55.4,30.04,ESE,108,0.0,1.0,91,0.00,,,0.00,meteohub,2013-08-12 12:48:00,
2013-08-12 05:53:00,57.9,55.2,30.04,ESE,108,0.0,1.0,91,0.00,,,0.00,meteohub,2013-08-12 12:53:00,
2013-08-12 05:58:00,57.9,55.2,30.04,ESE,108,0.0,0.0,91,0.00,,,0.00,meteohub,2013-08-12 12:58:00,
2013-08-12 06:04:00,57.9,55.2,30.04,ESE,108,0.0,0.0,91,0.00,,,0.00,meteohub,2013-08-12 13:04:00,
2013-08-12 06:09:00,57.9,55.2,30.04,ESE,107,0.0,0.0,91,0.00,,,0.00,meteohub,2013-08-12 13:09:00,
2013-08-12 06:14:00,57.9,55.2,30.04,ESE,107,0.0,0.0,91,0.00,,,0.00,meteohub,2013-08-12 13:14:00,
2013-08-12 06:19:00,57.9,55.2,30.04,ESE,108,0.0,0.0,91,0.00,,,0.00,meteohub,2013-08-12 13:19:00,
2013-08-12 06:24:00,57.9,55.2,30.04,ESE,107,0.0,0.0,91,0.00,,,0.00,meteohub,2013-08-12 13:24:00,
2013-08-12 06:29:00,57.9,55.2,30.04,ESE,105,0.0,0.0,91,0.00,,,0.00,meteohub,2013-08-12 13:29:00,
2013-08-12 06:34:00,57.9,55.2,30.04,ESE,105,0.0,1.0,91,0.00,,,0.00,meteohub,2013-08-12 13:34:00,
2013-08-12 06:39:00,58.1,55.4,30.04,ESE,106,0.0,1.0,91,0.00,,,0.00,meteohub,2013-08-12 13:39:00,
2013-08-12 06:44:00,58.3,55.6,30.04,ESE,106,0.0,0.0,91,0.00,,,0.00,meteohub,2013-08-12 13:44:00,
2013-08-12 06:49:00,58.3,55.6,30.04,ESE,106,0.0,0.0,91,0.00,,,0.00,meteohub,2013-08-12 13:49:00,
2013-08-12 06:54:00,58.3,55.6,30.05,ESE,105,0.0,0.0,91,0.00,,,0.00,meteohub,2013-08-12 13:54:00,
2013-08-12 06:59:00,58.3,55.4,30.05,ESE,105,0.0,0.0,90,0.00,,,0.00,meteohub,2013-08-12 13:59:00,
2013-08-12 07:04:00,58.5,55.6,30.05,ESE,105,0.0,0.0,90,0.00,,,0.00,meteohub,2013-08-12 14:04:00,
2013-08-12 07:09:00,58.5,55.8,30.05,ESE,106,0.0,0.0,91,0.00,,,0.00,meteohub,2013-08-12 14:09:00,
2013-08-12 07:14:00,58.6,55.8,30.05,ESE,105,0.0,0.0,90,0.00,,,0.00,meteohub,2013-08-12 14:14:00,
2013-08-12 07:19:00,58.6,55.8,30.05,ESE,106,0.0,0.0,90,0.00,,,0.00,meteohub,2013-08-12 14:19:00,
2013-08-12 07:24:00,58.8,55.9,30.05,ESE,118,1.0,0.0,90,0.00,,,0.00,meteohub,2013-08-12 14:24:00,
2013-08-12 07:29:00,58.6,55.8,30.05,ESE,111,1.0,2.0,90,0.00,,,0.00,meteohub,2013-08-12 14:29:00,
2013-08-12 07:34:00,58.6,55.8,30.05,ESE,106,1.0,2.0,90,0.00,,,0.00,meteohub,2013-08-12 14:34:00,
2013-08-12 07:39:00,58.6,55.8,30.05,East,96,0.0,2.0,90,0.00,,,0.00,meteohub,2013-08-12 14:39:00,
2013-08-12 07:44:00,58.8,55.9,30.06,East,97,1.0,2.0,90,0.00,,,0.00,meteohub,2013-08-12 14:44:00,
2013-08-12 07:50:00,58.8,55.9,30.05,East,82,0.0,2.0,90,0.00,,,0.00,meteohub,2013-08-12 14:50:00,
2013-08-12 07:55:00,58.8,55.9,30.06,East,82,1.0,1.0,90,0.00,,,0.00,meteohub,2013-08-12 14:55:00,
2013-08-12 08:00:00,58.8,55.9,30.06,East,82,0.0,1.0,90,0.00,,,0.00,meteohub,2013-08-12 15:00:00,
2013-08-12 08:05:00,59.0,56.1,30.06,East,81,0.0,1.0,90,0.00,,,0.00,meteohub,2013-08-12 15:05:00,
2013-08-12 08:10:00,59.0,55.8,30.06,East,81,0.0,1.0,89,0.00,,,0.00,meteohub,2013-08-12 15:10:00,
2013-08-12 08:15:00,59.2,55.9,30.06,East,82,0.0,0.0,89,0.00,,,0.00,meteohub,2013-08-12 15:15:00,
2013-08-12 08:20:00,59.2,55.9,30.06,East,85,0.0,0.0,89,0.00,,,0.00,meteohub,2013-08-12 15:20:00,
2013-08-12 08:25:00,59.4,56.1,30.06,East,85,0.0,1.0,89,0.00,,,0.00,meteohub,2013-08-12 15:25:00,
2013-08-12 08:30:00,59.5,55.9,30.06,East,85,0.0,1.0,88,0.00,,,0.00,meteohub,2013-08-12 15:30:00,
2013-08-12 08:35:00,59.7,56.1,30.06,East,86,0.0,1.0,88,0.00,,,0.00,meteohub,2013-08-12 15:35:00,
2013-08-12 08:40:00,59.7,56.1,30.06,East,86,0.0,1.0,88,0.00,,,0.00,meteohub,2013-08-12 15:40:00,
2013-08-12 08:45:00,59.7,56.1,30.06,East,86,1.0,1.0,88,0.00,,,0.00,meteohub,2013-08-12 15:45:00,
2013-08-12 08:50:00,59.5,55.9,30.06,East,92,1.0,1.0,88,0.00,,,0.00,meteohub,2013-08-12 15:50:00,
2013-08-12 08:55:00,59.5,56.3,30.06,ESE,108,2.0,2.0,89,0.00,,,0.00,meteohub,2013-08-12 15:55:00,
2013-08-12 09:00:00,59.7,56.5,30.06,East,79,3.0,3.0,89,0.00,,,0.00,meteohub,2013-08-12 16:00:00,
2013-08-12 09:05:00,59.7,56.5,30.07,East,94,2.0,3.0,89,0.00,,,0.00,meteohub,2013-08-12 16:05:00,
2013-08-12 09:10:00,59.5,56.3,30.07,East,81,3.0,4.0,89,0.00,,,0.00,meteohub,2013-08-12 16:10:00,
2013-08-12 09:15:00,59.5,56.7,30.07,East,85,2.0,4.0,90,0.00,,,0.00,meteohub,2013-08-12 16:15:00,
2013-08-12 09:21:00,59.7,56.5,30.07,East,92,4.0,4.0,89,0.00,,,0.00,meteohub,2013-08-12 16:21:00,
2013-08-12 09:26:00,59.7,56.8,30.06,East,79,3.0,5.0,90,0.00,,,0.00,meteohub,2013-08-12 16:26:00,
2013-08-12 09:31:00,60.1,56.8,30.06,ENE,57,2.0,5.0,89,0.00,,,0.00,meteohub,2013-08-12 16:31:00,
2013-08-12 09:36:00,61.0,57.4,30.07,ENE,60,2.0,5.0,88,0.00,,,0.00,meteohub,2013-08-12 16:36:00,
2013-08-12 09:41:00,60.4,56.5,30.06,East,89,2.0,4.0,87,0.00,,,0.00,meteohub,2013-08-12 16:41:00,
2013-08-12 09:46:00,60.4,57.2,30.07,East,91,3.0,4.0,89,0.00,,,0.00,meteohub,2013-08-12 16:46:00,
2013-08-12 09:51:00,60.4,56.8,30.07,ENE,77,2.0,4.0,88,0.00,,,0.00,meteohub,2013-08-12 16:51:00,
2013-08-12 09:56:00,60.6,57.4,30.07,ENE,69,3.0,4.0,89,0.00,,,0.00,meteohub,2013-08-12 16:56:00,
2013-08-12 10:01:00,61.2,57.2,30.06,East,96,1.0,4.0,87,0.00,,,0.00,meteohub,2013-08-12 17:01:00,
2013-08-12 10:06:00,61.3,57.4,30.06,ENE,74,4.0,5.0,87,0.00,,,0.00,meteohub,2013-08-12 17:06:00,
2013-08-12 10:11:00,61.5,57.9,30.06,ENE,65,3.0,5.0,88,0.00,,,0.00,meteohub,2013-08-12 17:11:00,
2013-08-12 10:16:00,61.9,57.9,30.06,East,86,4.0,5.0,87,0.00,,,0.00,meteohub,2013-08-12 17:16:00,
2013-08-12 10:21:00,61.9,57.9,30.06,East,94,5.0,5.0,87,0.00,,,0.00,meteohub,2013-08-12 17:21:00,
2013-08-12 10:26:00,61.7,57.4,30.06,ENE,78,3.0,6.0,86,0.00,,,0.00,meteohub,2013-08-12 17:26:00,
2013-08-12 10:31:00,62.1,58.1,30.06,East,83,4.0,6.0,87,0.00,,,0.00,meteohub,2013-08-12 17:31:00,
2013-08-12 10:36:00,63.0,58.5,30.06,ENE,78,3.0,6.0,85,0.00,,,0.00,meteohub,2013-08-12 17:36:00,
2013-08-12 10:41:00,62.8,57.9,30.06,ENE,63,5.0,6.0,84,0.00,,,0.00,meteohub,2013-08-12 17:41:00,
2013-08-12 10:46:00,62.6,57.7,30.06,ENE,60,2.0,6.0,84,0.00,,,0.00,meteohub,2013-08-12 17:46:00,
2013-08-12 10:51:00,62.8,57.9,30.06,ENE,75,4.0,6.0,84,0.00,,,0.00,meteohub,2013-08-12 17:51:00,
2013-08-12 10:57:00,62.6,57.7,30.06,ENE,70,4.0,6.0,84,0.00,,,0.00,meteohub,2013-08-12 17:57:00,
2013-08-12 11:02:00,62.2,57.7,30.06,ESE,108,2.0,6.0,85,0.00,,,0.00,meteohub,2013-08-12 18:02:00,
2013-08-12 11:07:00,62.4,57.9,30.06,East,80,4.0,6.0,85,0.00,,,0.00,meteohub,2013-08-12 18:07:00,
2013-08-12 11:12:00,62.6,57.7,30.06,East,84,4.0,6.0,84,0.00,,,0.00,meteohub,2013-08-12 18:12:00,
2013-08-12 11:17:00,62.2,57.7,30.07,East,83,5.0,6.0,85,0.00,,,0.00,meteohub,2013-08-12 18:17:00,
2013-08-12 11:22:00,62.2,57.9,30.07,SE,128,2.0,7.0,86,0.00,,,0.00,meteohub,2013-08-12 18:22:00,
2013-08-12 11:27:00,63.1,57.9,30.06,East,87,4.0,7.0,83,0.00,,,0.00,meteohub,2013-08-12 18:27:00,
2013-08-12 11:32:00,63.1,57.9,30.06,East,82,6.0,7.0,83,0.00,,,0.00,meteohub,2013-08-12 18:32:00,
2013-08-12 11:37:00,62.4,57.9,30.06,East,82,5.0,8.0,85,0.00,,,0.00,meteohub,2013-08-12 18:37:00,
2013-08-12 11:42:00,62.8,57.2,30.06,East,86,7.0,8.0,82,0.00,,,0.00,meteohub,2013-08-12 18:42:00,
2013-08-12 11:47:00,62.2,57.0,30.06,East,94,7.0,8.0,83,0.00,,,0.00,meteohub,2013-08-12 18:47:00,
2013-08-12 11:52:00,61.9,57.0,30.06,East,95,7.0,9.0,84,0.00,,,0.00,meteohub,2013-08-12 18:52:00,
2013-08-12 11:57:00,62.2,57.4,30.06,East,91,6.0,9.0,84,0.00,,,0.00,meteohub,2013-08-12 18:57:00,
2013-08-12 12:02:00,62.8,57.9,30.06,ENE,78,5.0,9.0,84,0.00,,,0.00,meteohub,2013-08-12 19:02:00,
2013-08-12 12:07:00,63.3,57.7,30.06,East,82,6.0,9.0,82,0.00,,,0.00,meteohub,2013-08-12 19:07:00,
2013-08-12 12:12:00,63.5,58.3,30.06,ENE,71,6.0,8.0,83,0.00,,,0.00,meteohub,2013-08-12 19:12:00,
2013-08-12 12:17:00,63.9,58.3,30.06,ENE,74,3.0,8.0,82,0.00,,,0.00,meteohub,2013-08-12 19:17:00,
2013-08-12 12:22:00,64.2,57.9,30.06,ENE,64,5.0,8.0,80,0.00,,,0.00,meteohub,2013-08-12 19:22:00,
2013-08-12 12:27:00,63.9,57.9,30.06,ENE,68,4.0,7.0,81,0.00,,,0.00,meteohub,2013-08-12 19:27:00,
2013-08-12 12:32:00,63.3,57.7,30.06,NW,315,2.0,7.0,82,0.00,,,0.00,meteohub,2013-08-12 19:32:00,
2013-08-12 12:37:00,64.2,57.9,30.05,NE,46,4.0,7.0,80,0.00,,,0.00,meteohub,2013-08-12 19:37:00,
2013-08-12 12:42:00,64.2,57.6,30.05,ENE,60,3.0,6.0,79,0.00,,,0.00,meteohub,2013-08-12 19:42:00,
2013-08-12 12:47:00,63.9,57.2,30.05,NNE,27,3.0,6.0,79,0.00,,,0.00,meteohub,2013-08-12 19:47:00,
2013-08-12 12:52:00,63.9,57.6,30.05,NNE,33,4.0,6.0,80,0.00,,,0.00,meteohub,2013-08-12 19:52:00,
2013-08-12 12:57:00,63.9,57.2,30.05,ENE,69,2.0,6.0,79,0.00,,,0.00,meteohub,2013-08-12 19:57:00,
2013-08-12 13:02:00,64.2,57.6,30.05,ENE,63,3.0,7.0,79,0.00,,,0.00,meteohub,2013-08-12 20:02:00,
2013-08-12 13:07:00,64.8,57.4,30.05,ENE,65,2.0,7.0,77,0.00,,,0.00,meteohub,2013-08-12 20:07:00,
2013-08-12 13:12:00,65.5,57.7,30.05,NNE,22,3.0,6.0,76,0.00,,,0.00,meteohub,2013-08-12 20:12:00,
2013-08-12 13:17:00,66.0,57.6,30.05,NNE,15,3.0,6.0,74,0.00,,,0.00,meteohub,2013-08-12 20:17:00,
2013-08-12 13:22:00,65.8,58.1,30.04,NE,39,5.0,7.0,76,0.00,,,0.00,meteohub,2013-08-12 20:22:00,
2013-08-12 13:27:00,65.8,57.7,30.04,NNE,27,4.0,7.0,75,0.00,,,0.00,meteohub,2013-08-12 20:27:00,
2013-08-12 13:32:00,66.2,58.1,30.04,East,87,3.0,8.0,75,0.00,,,0.00,meteohub,2013-08-12 20:32:00,
2013-08-12 13:38:00,65.8,57.7,30.04,NE,41,5.0,8.0,75,0.00,,,0.00,meteohub,2013-08-12 20:38:00,
2013-08-12 13:43:00,65.8,57.4,30.04,ENE,71,5.0,8.0,74,0.00,,,0.00,meteohub,2013-08-12 20:43:00,
2013-08-12 13:48:00,66.0,57.9,30.04,North,356,3.0,8.0,75,0.00,,,0.00,meteohub,2013-08-12 20:48:00,
2013-08-12 13:53:00,66.6,58.5,30.04,ENE,60,3.0,8.0,75,0.00,,,0.00,meteohub,2013-08-12 20:53:00,
2013-08-12 13:58:00,66.9,57.9,30.04,NNE,33,5.0,8.0,73,0.00,,,0.00,meteohub,2013-08-12 20:58:00,
2013-08-12 14:03:00,66.7,58.1,30.04,ENE,59,3.0,8.0,74,0.00,,,0.00,meteohub,2013-08-12 21:03:00,
2013-08-12 14:08:00,66.9,58.3,30.04,ENE,72,2.0,9.0,74,0.00,,,0.00,meteohub,2013-08-12 21:08:00,
2013-08-12 14:13:00,66.9,58.3,30.04,NE,45,7.0,9.0,74,0.00,,,0.00,meteohub,2013-08-12 21:13:00,
2013-08-12 14:18:00,66.7,58.6,30.04,NE,46,5.0,7.0,75,0.00,,,0.00,meteohub,2013-08-12 21:18:00,
2013-08-12 14:23:00,67.3,58.3,30.04,ESE,119,3.0,7.0,73,0.00,,,0.00,meteohub,2013-08-12 21:23:00,
2013-08-12 14:28:00,67.6,58.3,30.04,ENE,60,2.0,7.0,72,0.00,,,0.00,meteohub,2013-08-12 21:28:00,
2013-08-12 14:33:00,68.4,59.0,30.04,ENE,77,5.0,6.0,72,0.00,,,0.00,meteohub,2013-08-12 21:33:00,
2013-08-12 14:38:00,68.2,58.8,30.04,NNE,15,5.0,6.0,72,0.00,,,0.00,meteohub,2013-08-12 21:38:00,
2013-08-12 14:43:00,67.8,58.8,30.04,East,84,2.0,7.0,73,0.00,,,0.00,meteohub,2013-08-12 21:43:00,
2013-08-12 14:48:00,68.0,59.0,30.03,East,97,3.0,7.0,73,0.00,,,0.00,meteohub,2013-08-12 21:48:00,
2013-08-12 14:53:00,67.3,58.3,30.03,ENE,63,2.0,7.0,73,0.00,,,0.00,meteohub,2013-08-12 21:53:00,
2013-08-12 14:58:00,67.1,58.5,30.03,ENE,77,2.0,6.0,74,0.00,,,0.00,meteohub,2013-08-12 21:58:00,
2013-08-12 15:04:00,67.5,57.7,30.03,ENE,69,3.0,6.0,71,0.00,,,0.00,meteohub,2013-08-12 22:04:00,
2013-08-12 15:09:00,68.2,58.5,30.03,ENE,78,2.0,6.0,71,0.00,,,0.00,meteohub,2013-08-12 22:09:00,
2013-08-12 15:14:00,68.2,58.5,30.03,NNE,32,3.0,6.0,71,0.00,,,0.00,meteohub,2013-08-12 22:14:00,
2013-08-12 15:19:00,68.4,58.6,30.03,NNE,32,2.0,6.0,71,0.00,,,0.00,meteohub,2013-08-12 22:19:00,
2013-08-12 15:24:00,68.2,58.8,30.03,NE,49,1.0,6.0,72,0.00,,,0.00,meteohub,2013-08-12 22:24:00,
2013-08-12 15:29:00,68.4,59.0,30.03,ENE,64,5.0,7.0,72,0.00,,,0.00,meteohub,2013-08-12 22:29:00,
2013-08-12 15:34:00,68.4,59.4,30.02,ENE,70,2.0,7.0,73,0.00,,,0.00,meteohub,2013-08-12 22:34:00,
2013-08-12 15:39:00,68.2,59.5,30.02,NNW,342,1.0,7.0,74,0.00,,,0.00,meteohub,2013-08-12 22:39:00,
2013-08-12 15:44:00,68.5,59.2,30.02,ENE,75,3.0,7.0,72,0.00,,,0.00,meteohub,2013-08-12 22:44:00,
2013-08-12 15:49:00,68.7,59.0,30.02,ENE,73,5.0,6.0,71,0.00,,,0.00,meteohub,2013-08-12 22:49:00,
2013-08-12 15:54:00,68.5,59.2,30.02,East,83,3.0,6.0,72,0.00,,,0.00,meteohub,2013-08-12 22:54:00,
2013-08-12 16:00:00,68.9,58.3,30.01,ENE,66,5.0,6.0,69,0.00,,,0.00,meteohub,2013-08-12 23:00:00,
2013-08-12 16:05:00,69.4,59.2,30.01,East,83,3.0,6.0,70,0.00,,,0.00,meteohub,2013-08-12 23:05:00,
2013-08-12 16:10:00,69.1,58.8,30.01,ENE,64,2.0,6.0,70,0.00,,,0.00,meteohub,2013-08-12 23:10:00,
2013-08-12 16:15:00,69.6,58.6,30.01,NE,50,4.0,5.0,68,0.00,,,0.00,meteohub,2013-08-12 23:15:00,
2013-08-12 16:20:00,69.8,58.8,30.01,ENE,58,4.0,6.0,68,0.00,,,0.00,meteohub,2013-08-12 23:20:00,
2013-08-12 16:25:00,70.0,57.7,30.01,ENE,63,3.0,6.0,65,0.00,,,0.00,meteohub,2013-08-12 23:25:00,
2013-08-12 16:30:00,69.6,58.1,30.00,NE,46,3.0,6.0,67,0.00,,,0.00,meteohub,2013-08-12 23:30:00,
2013-08-12 16:35:00,70.0,58.5,30.00,ENE,60,4.0,7.0,67,0.00,,,0.00,meteohub,2013-08-12 23:35:00,
2013-08-12 16:40:00,70.0,58.1,30.00,ENE,72,5.0,8.0,66,0.00,,,0.00,meteohub,2013-08-12 23:40:00,
2013-08-12 16:45:00,69.8,57.9,30.00,NNE,26,3.0,8.0,66,0.00,,,0.00,meteohub,2013-08-12 23:45:00,
2013-08-12 16:50:00,70.2,58.3,30.00,NE,37,3.0,8.0,66,0.00,,,0.00,meteohub,2013-08-12 23:50:00,
2013-08-12 16:55:00,70.3,58.1,30.00,NE,37,6.0,7.0,65,0.00,,,0.00,meteohub,2013-08-12 23:55:00,
2013-08-12 17:00:00,70.2,58.3,30.00,NNE,27,4.0,9.0,66,0.00,,,0.00,meteohub,2013-08-13 00:00:00,
2013-08-12 17:05:00,69.8,57.9,30.00,NE,49,6.0,9.0,66,0.00,,,0.00,meteohub,2013-08-13 00:05:00,
2013-08-12 17:10:00,69.4,57.6,30.00,NNE,25,5.0,9.0,66,0.00,,,0.00,meteohub,2013-08-13 00:10:00,
2013-08-12 17:15:00,69.4,57.6,30.00,NE,51,9.0,9.0,66,0.00,,,0.00,meteohub,2013-08-13 00:15:00,
2013-08-12 17:21:00,69.6,57.7,30.00,North,7,6.0,9.0,66,0.00,,,0.00,meteohub,2013-08-13 00:21:00,
2013-08-12 17:26:00,70.2,57.0,30.00,NNE,15,7.0,9.0,63,0.00,,,0.00,meteohub,2013-08-13 00:26:00,
2013-08-12 17:31:00,70.7,57.6,30.00,NNE,26,6.0,9.0,63,0.00,,,0.00,meteohub,2013-08-13 00:31:00,
2013-08-12 17:36:00,71.1,58.3,30.00,NE,46,6.0,10.0,64,0.00,,,0.00,meteohub,2013-08-13 00:36:00,
2013-08-12 17:41:00,71.4,58.6,30.00,ENE,68,3.0,10.0,64,0.00,,,0.00,meteohub,2013-08-13 00:41:00,
2013-08-12 17:46:00,72.0,58.6,30.00,ENE,69,5.0,10.0,63,0.00,,,0.00,meteohub,2013-08-13 00:46:00,
2013-08-12 17:51:00,72.1,58.8,30.00,NE,37,5.0,9.0,63,0.00,,,0.00,meteohub,2013-08-13 00:51:00,
2013-08-12 17:56:00,72.0,58.6,30.00,ESE,105,1.0,7.0,63,0.00,,,0.00,meteohub,2013-08-13 00:56:00,
2013-08-12 18:01:00,72.3,58.6,30.00,WNW,302,2.0,7.0,62,0.00,,,0.00,meteohub,2013-08-13 01:01:00,
2013-08-12 18:06:00,72.3,59.0,30.00,NE,37,1.0,7.0,63,0.00,,,0.00,meteohub,2013-08-13 01:06:00,
2013-08-12 18:11:00,72.1,58.5,30.00,North,350,0.0,9.0,62,0.00,,,0.00,meteohub,2013-08-13 01:11:00,
2013-08-12 18:16:00,72.1,58.5,30.00,WSW,238,2.0,9.0,62,0.00,,,0.00,meteohub,2013-08-13 01:16:00,
2013-08-12 18:21:00,71.8,58.1,30.00,WNW,291,2.0,9.0,62,0.00,,,0.00,meteohub,2013-08-13 01:21:00,
2013-08-12 18:26:00,71.4,58.1,30.00,NNE,19,2.0,11.0,63,0.00,,,0.00,meteohub,2013-08-13 01:26:00,
2013-08-12 18:31:00,71.4,58.1,30.00,North,358,4.0,11.0,63,0.00,,,0.00,meteohub,2013-08-13 01:31:00,
2013-08-12 18:36:00,71.2,57.9,30.00,WNW,291,4.0,11.0,63,0.00,,,0.00,meteohub,2013-08-13 01:36:00,
2013-08-12 18:41:00,71.1,58.3,30.00,SW,229,3.0,7.0,64,0.00,,,0.00,meteohub,2013-08-13 01:41:00,
2013-08-12 18:46:00,70.5,57.7,30.00,NNE,22,2.0,6.0,64,0.00,,,0.00,meteohub,2013-08-13 01:46:00,
2013-08-12 18:51:00,70.3,57.6,30.00,SW,236,0.0,11.0,64,0.00,,,0.00,meteohub,2013-08-13 01:51:00,
2013-08-12 18:56:00,70.0,57.7,30.00,WNW,302,1.0,11.0,65,0.00,,,0.00,meteohub,2013-08-13 01:56:00,
2013-08-12 19:01:00,69.3,57.4,30.01,NW,322,1.0,11.0,66,0.00,,,0.00,meteohub,2013-08-13 02:01:00,
2013-08-12 19:07:00,68.7,57.4,30.01,NE,53,5.0,8.0,67,0.00,,,0.00,meteohub,2013-08-13 02:07:00,
2013-08-12 19:12:00,68.4,57.4,30.01,WSW,252,2.0,8.0,68,0.00,,,0.00,meteohub,2013-08-13 02:12:00,
2013-08-12 19:17:00,67.8,57.2,30.01,West,271,2.0,10.0,69,0.00,,,0.00,meteohub,2013-08-13 02:17:00,
2013-08-12 19:22:00,67.5,57.4,30.01,NW,326,0.0,10.0,70,0.00,,,0.00,meteohub,2013-08-13 02:22:00,
2013-08-12 19:27:00,67.3,57.2,30.01,NW,308,1.0,6.0,70,0.00,,,0.00,meteohub,2013-08-13 02:27:00,
2013-08-12 19:32:00,66.9,57.2,30.01,WNW,287,0.0,8.0,71,0.00,,,0.00,meteohub,2013-08-13 02:32:00,
2013-08-12 19:37:00,66.6,57.2,30.01,NW,316,5.0,8.0,72,0.00,,,0.00,meteohub,2013-08-13 02:37:00,
2013-08-12 19:42:00,66.0,57.2,30.01,NE,55,5.0,8.0,73,0.00,,,0.00,meteohub,2013-08-13 02:42:00,
2013-08-12 19:47:00,65.7,56.8,30.02,West,278,1.0,8.0,73,0.00,,,0.00,meteohub,2013-08-13 02:47:00,
2013-08-12 19:52:00,65.5,57.0,30.02,SSE,153,0.0,5.0,74,0.00,,,0.00,meteohub,2013-08-13 02:52:00,
2013-08-12 19:57:00,65.1,56.7,30.02,West,263,3.0,5.0,74,0.00,,,0.00,meteohub,2013-08-13 02:57:00,
2013-08-12 20:02:00,64.9,56.8,30.02,SSE,155,0.0,5.0,75,0.00,,,0.00,meteohub,2013-08-13 03:02:00,
2013-08-12 20:07:00,64.8,57.0,30.02,West,262,0.0,7.0,76,0.00,,,0.00,meteohub,2013-08-13 03:07:00,
2013-08-12 20:12:00,64.6,56.8,30.02,SW,231,0.0,7.0,76,0.00,,,0.00,meteohub,2013-08-13 03:12:00,
2013-08-12 20:17:00,64.4,56.7,30.02,WSW,252,2.0,7.0,76,0.00,,,0.00,meteohub,2013-08-13 03:17:00,
2013-08-12 20:22:00,64.2,56.8,30.02,West,278,1.0,4.0,77,0.00,,,0.00,meteohub,2013-08-13 03:22:00,
2013-08-12 20:27:00,64.0,56.7,30.02,SW,217,0.0,3.0,77,0.00,,,0.00,meteohub,2013-08-13 03:27:00,
2013-08-12 20:32:00,63.9,56.5,30.02,NE,35,4.0,4.0,77,0.00,,,0.00,meteohub,2013-08-13 03:32:00,
2013-08-12 20:33:00,63.7,56.7,30.02,West,263,0.0,3.0,78,0.00,,,0.00,meteohub,2013-08-13 03:33:00,
2013-08-12 20:38:00,63.5,56.5,30.02,West,281,1.0,4.0,78,0.00,,,0.00,meteohub,2013-08-13 03:38:00,
2013-08-12 20:43:00,63.3,56.3,30.02,West,274,2.0,4.0,78,0.00,,,0.00,meteohub,2013-08-13 03:43:00,
2013-08-12 20:48:00,63.1,56.5,30.02,NNW,347,2.0,4.0,79,0.00,,,0.00,meteohub,2013-08-13 03:48:00,
2013-08-12 20:53:00,63.0,56.3,30.03,WNW,300,0.0,4.0,79,0.00,,,0.00,meteohub,2013-08-13 03:53:00,
2013-08-12 20:59:00,63.0,56.3,30.03,SSW,201,0.0,5.0,79,0.00,,,0.00,meteohub,2013-08-13 03:59:00,
2013-08-12 21:01:00,62.8,56.5,30.03,WNW,293,1.0,5.0,80,0.00,,,0.00,meteohub,2013-08-13 04:01:00,
2013-08-12 21:02:00,62.8,56.5,30.03,SW,233,1.0,5.0,80,0.00,,,0.00,meteohub,2013-08-13 04:02:00,
2013-08-12 21:03:00,62.8,56.5,30.03,NW,305,0.0,5.0,80,0.00,,,0.00,meteohub,2013-08-13 04:03:00,
2013-08-12 21:05:00,62.8,56.5,30.03,WNW,302,0.0,5.0,80,0.00,,,0.00,meteohub,2013-08-13 04:05:00,
2013-08-12 21:10:00,62.4,56.1,30.04,WSW,238,1.0,5.0,80,0.00,,,0.00,meteohub,2013-08-13 04:10:00,
2013-08-12 21:15:00,62.2,56.3,30.04,South,191,0.0,5.0,81,0.00,,,0.00,meteohub,2013-08-13 04:15:00,
2013-08-12 21:20:00,62.1,56.1,30.04,WSW,250,0.0,5.0,81,0.00,,,0.00,meteohub,2013-08-13 04:20:00,
2013-08-12 21:25:00,61.9,55.9,30.04,East,97,1.0,4.0,81,0.00,,,0.00,meteohub,2013-08-13 04:25:00,
2013-08-12 21:30:00,61.5,55.9,30.04,SW,224,0.0,4.0,82,0.00,,,0.00,meteohub,2013-08-13 04:30:00,
2013-08-12 21:35:00,61.3,55.8,30.04,South,191,0.0,4.0,82,0.00,,,0.00,meteohub,2013-08-13 04:35:00,
2013-08-12 21:40:00,61.3,55.8,30.04,ESE,104,0.0,4.0,82,0.00,,,0.00,meteohub,2013-08-13 04:40:00,
2013-08-12 21:45:00,61.2,55.9,30.04,East,98,0.0,1.0,83,0.00,,,0.00,meteohub,2013-08-13 04:45:00,
2013-08-12 21:50:00,61.2,55.9,30.04,NE,44,2.0,2.0,83,0.00,,,0.00,meteohub,2013-08-13 04:50:00,
2013-08-12 21:55:00,61.2,55.9,30.05,NE,47,0.0,2.0,83,0.00,,,0.00,meteohub,2013-08-13 04:55:00,
2013-08-12 22:00:00,61.2,55.6,30.05,NE,49,0.0,2.0,82,0.00,,,0.00,meteohub,2013-08-13 05:00:00,
2013-08-12 22:05:00,61.0,55.8,30.05,NNE,30,1.0,3.0,83,0.00,,,0.00,meteohub,2013-08-13 05:05:00,
2013-08-12 22:10:00,61.0,55.8,30.05,NNE,20,0.0,3.0,83,0.00,,,0.00,meteohub,2013-08-13 05:10:00,
2013-08-12 22:15:00,60.6,55.4,30.05,NNE,20,0.0,3.0,83,0.00,,,0.00,meteohub,2013-08-13 05:15:00,
2013-08-12 22:20:00,60.6,55.4,30.05,North,7,0.0,2.0,83,0.00,,,0.00,meteohub,2013-08-13 05:20:00,
2013-08-12 22:25:00,60.4,55.2,30.05,NNW,336,0.0,2.0,83,0.00,,,0.00,meteohub,2013-08-13 05:25:00,
2013-08-12 22:30:00,60.4,55.6,30.05,WNW,296,0.0,2.0,84,0.00,,,0.00,meteohub,2013-08-13 05:30:00,
2013-08-12 22:35:00,60.3,55.4,30.05,WNW,291,1.0,2.0,84,0.00,,,0.00,meteohub,2013-08-13 05:35:00,
2013-08-12 22:40:00,60.3,55.4,30.05,WNW,298,1.0,3.0,84,0.00,,,0.00,meteohub,2013-08-13 05:40:00,
2013-08-12 22:45:00,60.3,55.4,30.05,WNW,296,0.0,3.0,84,0.00,,,0.00,meteohub,2013-08-13 05:45:00,
2013-08-12 22:51:00,60.1,55.6,30.05,WNW,287,0.0,2.0,85,0.00,,,0.00,meteohub,2013-08-13 05:51:00,
2013-08-12 22:56:00,59.9,55.4,30.06,WNW,287,1.0,2.0,85,0.00,,,0.00,meteohub,2013-08-13 05:56:00,
2013-08-12 23:01:00,59.7,55.2,30.06,WNW,287,0.0,1.0,85,0.00,,,0.00,meteohub,2013-08-13 06:01:00,
2013-08-12 23:06:00,59.7,55.6,30.06,WNW,287,0.0,1.0,86,0.00,,,0.00,meteohub,2013-08-13 06:06:00,
2013-08-12 23:11:00,59.5,55.4,30.06,WNW,287,0.0,1.0,86,0.00,,,0.00,meteohub,2013-08-13 06:11:00,
2013-08-12 23:16:00,59.2,55.0,30.06,WNW,287,0.0,1.0,86,0.00,,,0.00,meteohub,2013-08-13 06:16:00,
2013-08-12 23:21:00,59.0,55.2,30.06,WNW,287,0.0,0.0,87,0.00,,,0.00,meteohub,2013-08-13 06:21:00,
2013-08-12 23:26:00,58.8,55.0,30.06,WNW,287,0.0,0.0,87,0.00,,,0.00,meteohub,2013-08-13 06:26:00,
2013-08-12 23:31:00,58.6,55.0,30.06,West,264,0.0,1.0,88,0.00,,,0.00,meteohub,2013-08-13 06:31:00,
2013-08-12 23:36:00,58.6,55.0,30.06,West,280,0.0,1.0,88,0.00,,,0.00,meteohub,2013-08-13 06:36:00,
2013-08-12 23:41:00,58.6,55.0,30.06,West,281,0.0,1.0,88,0.00,,,0.00,meteohub,2013-08-13 06:41:00,
2013-08-12 23:46:00,58.5,54.9,30.07,West,281,0.0,1.0,88,0.00,,,0.00,meteohub,2013-08-13 06:46:00,
2013-08-12 23:51:00,58.5,54.9,30.06,West,281,1.0,1.0,88,0.00,,,0.00,meteohub,2013-08-13 06:51:00,
2013-08-12 23:56:00,58.5,54.9,30.07,West,277,1.0,1.0,88,0.00,,,0.00,meteohub,2013-08-13 06:56:00,